sensor_id;sensor_type;location;lat;lon;timestamp;temperature;humidity
21176;DHT22;10746;50.178;8.186;2022-10-16T00:01:47;11.90;99.90
21176;DHT22;10746;50.178;8.186;2022-10-16T00:04:13;11.90;99.90
21176;DHT22;10746;50.178;8.186;2022-10-16T00:06:40;11.90;99.90
21176;DHT22;10746;50.178;8.186;2022-10-16T00:09:08;11.80;99.90
21176;DHT22;10746;50.178;8.186;2022-10-16T00:11:37;12.00;99.90
21176;DHT22;10746;50.178;8.186;2022-10-16T00:14:06;12.00;99.90
21176;DHT22;10746;50.178;8.186;2022-10-16T00:16:34;11.90;99.90
21176;DHT22;10746;50.178;8.186;2022-10-16T00:19:01;11.80;99.90
21176;DHT22;10746;50.178;8.186;2022-10-16T00:21:29;11.90;99.90
21176;DHT22;10746;50.178;8.186;2022-10-16T00:23:58;11.80;99.90
21176;DHT22;10746;50.178;8.186;2022-10-16T00:26:26;11.70;99.90
21176;DHT22;10746;50.178;8.186;2022-10-16T00:28:53;11.80;99.90
21176;DHT22;10746;50.178;8.186;2022-10-16T00:31:21;11.80;99.90
21176;DHT22;10746;50.178;8.186;2022-10-16T00:33:50;11.80;99.90
21176;DHT22;10746;50.178;8.186;2022-10-16T00:36:19;11.80;99.90
21176;DHT22;10746;50.178;8.186;2022-10-16T00:38:46;11.90;99.90
21176;DHT22;10746;50.178;8.186;2022-10-16T00:41:15;12.00;99.90
21176;DHT22;10746;50.178;8.186;2022-10-16T00:43:44;11.80;99.90
21176;DHT22;10746;50.178;8.186;2022-10-16T00:46:15;11.80;99.90
21176;DHT22;10746;50.178;8.186;2022-10-16T00:48:46;11.70;99.90
21176;DHT22;10746;50.178;8.186;2022-10-16T00:51:17;11.90;99.90
21176;DHT22;10746;50.178;8.186;2022-10-16T00:53:46;11.80;99.90
21176;DHT22;10746;50.178;8.186;2022-10-16T00:56:13;11.90;99.90
21176;DHT22;10746;50.178;8.186;2022-10-16T00:58:39;12.00;99.90
21176;DHT22;10746;50.178;8.186;2022-10-16T01:01:06;12.00;99.90
21176;DHT22;10746;50.178;8.186;2022-10-16T01:03:35;12.00;99.90
21176;DHT22;10746;50.178;8.186;2022-10-16T01:06:10;12.00;99.90
21176;DHT22;10746;50.178;8.186;2022-10-16T01:08:47;11.90;99.90
21176;DHT22;10746;50.178;8.186;2022-10-16T01:11:20;11.90;99.90
21176;DHT22;10746;50.178;8.186;2022-10-16T01:13:51;12.00;99.90
21176;DHT22;10746;50.178;8.186;2022-10-16T01:16:26;12.10;99.90
21176;DHT22;10746;50.178;8.186;2022-10-16T01:18:58;12.20;99.90
21176;DHT22;10746;50.178;8.186;2022-10-16T01:21:29;12.10;99.90
21176;DHT22;10746;50.178;8.186;2022-10-16T01:24:06;12.10;99.90
21176;DHT22;10746;50.178;8.186;2022-10-16T01:26:46;12.10;99.90
21176;DHT22;10746;50.178;8.186;2022-10-16T01:29:21;12.20;99.90
21176;DHT22;10746;50.178;8.186;2022-10-16T01:31:54;12.20;99.90
21176;DHT22;10746;50.178;8.186;2022-10-16T01:34:27;12.20;99.90
21176;DHT22;10746;50.178;8.186;2022-10-16T01:37:00;12.30;99.90
21176;DHT22;10746;50.178;8.186;2022-10-16T01:39:32;12.10;99.90
21176;DHT22;10746;50.178;8.186;2022-10-16T01:42:03;12.30;99.90
21176;DHT22;10746;50.178;8.186;2022-10-16T01:44:33;12.20;99.90
21176;DHT22;10746;50.178;8.186;2022-10-16T01:47:01;12.20;99.90
21176;DHT22;10746;50.178;8.186;2022-10-16T01:49:32;12.20;99.90
21176;DHT22;10746;50.178;8.186;2022-10-16T01:52:03;12.20;99.90
21176;DHT22;10746;50.178;8.186;2022-10-16T01:54:32;12.20;99.90
21176;DHT22;10746;50.178;8.186;2022-10-16T01:57:00;12.30;99.90
21176;DHT22;10746;50.178;8.186;2022-10-16T01:59:32;12.40;99.90
21176;DHT22;10746;50.178;8.186;2022-10-16T02:02:01;12.30;99.90
21176;DHT22;10746;50.178;8.186;2022-10-16T02:04:33;12.30;99.90
21176;DHT22;10746;50.178;8.186;2022-10-16T02:07:01;12.40;99.90
21176;DHT22;10746;50.178;8.186;2022-10-16T02:09:27;12.40;99.90
21176;DHT22;10746;50.178;8.186;2022-10-16T02:11:57;12.30;99.90
21176;DHT22;10746;50.178;8.186;2022-10-16T02:14:28;12.30;99.90
21176;DHT22;10746;50.178;8.186;2022-10-16T02:16:56;12.30;99.90
21176;DHT22;10746;50.178;8.186;2022-10-16T02:19:23;12.30;99.90
21176;DHT22;10746;50.178;8.186;2022-10-16T02:21:53;12.30;99.90
21176;DHT22;10746;50.178;8.186;2022-10-16T02:24:26;12.40;99.90
21176;DHT22;10746;50.178;8.186;2022-10-16T02:27:00;12.50;99.90
21176;DHT22;10746;50.178;8.186;2022-10-16T02:29:28;12.50;99.90
21176;DHT22;10746;50.178;8.186;2022-10-16T02:31:59;12.40;99.90
21176;DHT22;10746;50.178;8.186;2022-10-16T02:34:28;12.40;99.90
21176;DHT22;10746;50.178;8.186;2022-10-16T02:36:57;12.60;99.90
21176;DHT22;10746;50.178;8.186;2022-10-16T02:39:26;12.70;99.90
21176;DHT22;10746;50.178;8.186;2022-10-16T02:41:53;12.60;99.90
21176;DHT22;10746;50.178;8.186;2022-10-16T02:44:20;12.60;99.90
21176;DHT22;10746;50.178;8.186;2022-10-16T02:46:47;12.60;99.90
21176;DHT22;10746;50.178;8.186;2022-10-16T02:49:15;12.60;99.90
21176;DHT22;10746;50.178;8.186;2022-10-16T02:51:41;12.70;99.90
21176;DHT22;10746;50.178;8.186;2022-10-16T02:54:08;12.80;99.90
21176;DHT22;10746;50.178;8.186;2022-10-16T02:56:35;12.80;99.90
21176;DHT22;10746;50.178;8.186;2022-10-16T02:59:01;12.80;99.90
21176;DHT22;10746;50.178;8.186;2022-10-16T03:01:28;12.80;99.90
21176;DHT22;10746;50.178;8.186;2022-10-16T03:03:55;13.00;99.90
21176;DHT22;10746;50.178;8.186;2022-10-16T03:06:23;12.80;99.90
21176;DHT22;10746;50.178;8.186;2022-10-16T03:08:50;12.80;99.90
21176;DHT22;10746;50.178;8.186;2022-10-16T03:11:16;12.80;99.90
21176;DHT22;10746;50.178;8.186;2022-10-16T03:13:43;12.70;99.90
21176;DHT22;10746;50.178;8.186;2022-10-16T03:16:10;12.80;99.90
21176;DHT22;10746;50.178;8.186;2022-10-16T03:18:37;12.80;99.90
21176;DHT22;10746;50.178;8.186;2022-10-16T03:21:04;13.00;99.90
21176;DHT22;10746;50.178;8.186;2022-10-16T03:23:32;12.80;99.90
21176;DHT22;10746;50.178;8.186;2022-10-16T03:25:58;12.80;99.90
21176;DHT22;10746;50.178;8.186;2022-10-16T03:28:25;12.60;99.90
21176;DHT22;10746;50.178;8.186;2022-10-16T03:30:52;12.60;99.90
21176;DHT22;10746;50.178;8.186;2022-10-16T03:33:18;12.60;99.90
21176;DHT22;10746;50.178;8.186;2022-10-16T03:35:51;12.60;99.90
21176;DHT22;10746;50.178;8.186;2022-10-16T03:38:19;12.70;99.90
21176;DHT22;10746;50.178;8.186;2022-10-16T03:40:48;12.80;99.90
21176;DHT22;10746;50.178;8.186;2022-10-16T03:43:15;12.70;99.90
21176;DHT22;10746;50.178;8.186;2022-10-16T03:45:41;12.80;99.90
21176;DHT22;10746;50.178;8.186;2022-10-16T03:48:08;12.80;99.90
21176;DHT22;10746;50.178;8.186;2022-10-16T03:50:35;12.60;99.90
21176;DHT22;10746;50.178;8.186;2022-10-16T03:53:02;12.60;99.90
21176;DHT22;10746;50.178;8.186;2022-10-16T03:55:28;12.70;99.90
21176;DHT22;10746;50.178;8.186;2022-10-16T03:57:56;12.70;99.90
21176;DHT22;10746;50.178;8.186;2022-10-16T04:00:23;12.60;99.90
21176;DHT22;10746;50.178;8.186;2022-10-16T04:02:50;12.60;99.90
21176;DHT22;10746;50.178;8.186;2022-10-16T04:05:16;12.70;99.90
21176;DHT22;10746;50.178;8.186;2022-10-16T04:07:43;12.60;99.90
21176;DHT22;10746;50.178;8.186;2022-10-16T04:10:10;12.60;99.90
21176;DHT22;10746;50.178;8.186;2022-10-16T04:12:36;12.60;99.90
21176;DHT22;10746;50.178;8.186;2022-10-16T04:15:05;12.60;99.90
21176;DHT22;10746;50.178;8.186;2022-10-16T04:17:32;12.70;99.90
21176;DHT22;10746;50.178;8.186;2022-10-16T04:19:59;12.70;99.90
21176;DHT22;10746;50.178;8.186;2022-10-16T04:22:25;12.70;99.90
21176;DHT22;10746;50.178;8.186;2022-10-16T04:24:52;12.80;99.90
21176;DHT22;10746;50.178;8.186;2022-10-16T04:27:19;12.80;99.90
21176;DHT22;10746;50.178;8.186;2022-10-16T04:29:45;12.80;99.90
21176;DHT22;10746;50.178;8.186;2022-10-16T04:32:13;12.80;99.90
21176;DHT22;10746;50.178;8.186;2022-10-16T04:34:40;12.80;99.90
21176;DHT22;10746;50.178;8.186;2022-10-16T04:37:07;12.80;99.90
21176;DHT22;10746;50.178;8.186;2022-10-16T04:39:34;12.80;99.90
21176;DHT22;10746;50.178;8.186;2022-10-16T04:42:00;12.90;99.90
21176;DHT22;10746;50.178;8.186;2022-10-16T04:44:28;12.80;99.90
21176;DHT22;10746;50.178;8.186;2022-10-16T04:46:54;12.90;99.90
21176;DHT22;10746;50.178;8.186;2022-10-16T04:49:22;12.90;99.90
21176;DHT22;10746;50.178;8.186;2022-10-16T04:51:49;12.90;99.90
21176;DHT22;10746;50.178;8.186;2022-10-16T04:54:16;12.80;99.90
21176;DHT22;10746;50.178;8.186;2022-10-16T04:56:42;12.80;99.90
21176;DHT22;10746;50.178;8.186;2022-10-16T04:59:12;12.80;99.90
21176;DHT22;10746;50.178;8.186;2022-10-16T05:01:39;12.90;99.90
21176;DHT22;10746;50.178;8.186;2022-10-16T05:04:06;12.90;99.90
21176;DHT22;10746;50.178;8.186;2022-10-16T05:06:34;12.90;99.90
21176;DHT22;10746;50.178;8.186;2022-10-16T05:09:01;12.90;99.90
21176;DHT22;10746;50.178;8.186;2022-10-16T05:11:28;13.00;99.90
21176;DHT22;10746;50.178;8.186;2022-10-16T05:13:54;12.90;99.90
21176;DHT22;10746;50.178;8.186;2022-10-16T05:16:21;12.90;99.90
21176;DHT22;10746;50.178;8.186;2022-10-16T05:18:48;12.90;99.90
21176;DHT22;10746;50.178;8.186;2022-10-16T05:21:15;13.00;99.90
21176;DHT22;10746;50.178;8.186;2022-10-16T05:23:43;13.00;99.90
21176;DHT22;10746;50.178;8.186;2022-10-16T05:26:10;13.00;99.90
21176;DHT22;10746;50.178;8.186;2022-10-16T05:28:36;13.00;99.90
21176;DHT22;10746;50.178;8.186;2022-10-16T05:31:07;13.00;99.90
21176;DHT22;10746;50.178;8.186;2022-10-16T05:33:34;13.00;99.90
21176;DHT22;10746;50.178;8.186;2022-10-16T05:36:01;13.00;99.90
21176;DHT22;10746;50.178;8.186;2022-10-16T05:38:28;12.80;99.90
21176;DHT22;10746;50.178;8.186;2022-10-16T05:40:56;13.00;99.90
21176;DHT22;10746;50.178;8.186;2022-10-16T05:43:23;12.90;99.90
21176;DHT22;10746;50.178;8.186;2022-10-16T05:45:54;13.00;99.90
21176;DHT22;10746;50.178;8.186;2022-10-16T05:48:21;12.90;99.90
21176;DHT22;10746;50.178;8.186;2022-10-16T05:50:48;13.00;99.90
21176;DHT22;10746;50.178;8.186;2022-10-16T05:53:22;13.10;99.90
21176;DHT22;10746;50.178;8.186;2022-10-16T05:55:52;13.00;99.90
21176;DHT22;10746;50.178;8.186;2022-10-16T05:58:20;13.10;99.90
21176;DHT22;10746;50.178;8.186;2022-10-16T06:00:53;13.10;99.90
21176;DHT22;10746;50.178;8.186;2022-10-16T06:03:20;13.10;99.90
21176;DHT22;10746;50.178;8.186;2022-10-16T06:05:46;13.10;99.90
21176;DHT22;10746;50.178;8.186;2022-10-16T06:08:13;13.10;99.90
21176;DHT22;10746;50.178;8.186;2022-10-16T06:10:40;13.20;99.90
21176;DHT22;10746;50.178;8.186;2022-10-16T06:13:06;13.30;99.90
21176;DHT22;10746;50.178;8.186;2022-10-16T06:15:34;13.30;99.90
21176;DHT22;10746;50.178;8.186;2022-10-16T06:18:01;13.10;99.90
21176;DHT22;10746;50.178;8.186;2022-10-16T06:20:28;13.20;99.90
21176;DHT22;10746;50.178;8.186;2022-10-16T06:22:54;13.20;99.90
21176;DHT22;10746;50.178;8.186;2022-10-16T06:25:21;13.20;99.90
21176;DHT22;10746;50.178;8.186;2022-10-16T06:27:48;13.20;99.90
21176;DHT22;10746;50.178;8.186;2022-10-16T06:30:15;13.30;99.90
21176;DHT22;10746;50.178;8.186;2022-10-16T06:32:43;13.20;99.90
21176;DHT22;10746;50.178;8.186;2022-10-16T06:35:09;13.20;99.90
21176;DHT22;10746;50.178;8.186;2022-10-16T06:37:36;13.30;99.90
21176;DHT22;10746;50.178;8.186;2022-10-16T06:40:03;13.30;99.90
21176;DHT22;10746;50.178;8.186;2022-10-16T06:42:30;13.20;99.90
21176;DHT22;10746;50.178;8.186;2022-10-16T06:44:57;13.10;99.90
21176;DHT22;10746;50.178;8.186;2022-10-16T06:47:24;13.20;99.90
21176;DHT22;10746;50.178;8.186;2022-10-16T06:49:52;13.30;99.90
21176;DHT22;10746;50.178;8.186;2022-10-16T06:52:18;13.30;99.90
21176;DHT22;10746;50.178;8.186;2022-10-16T06:54:45;13.30;99.90
21176;DHT22;10746;50.178;8.186;2022-10-16T06:57:12;13.30;99.90
21176;DHT22;10746;50.178;8.186;2022-10-16T06:59:38;13.30;99.90
21176;DHT22;10746;50.178;8.186;2022-10-16T07:02:05;13.30;99.90
21176;DHT22;10746;50.178;8.186;2022-10-16T07:04:33;13.30;99.90
21176;DHT22;10746;50.178;8.186;2022-10-16T07:07:01;13.40;99.90
21176;DHT22;10746;50.178;8.186;2022-10-16T07:09:28;13.30;99.90
21176;DHT22;10746;50.178;8.186;2022-10-16T07:11:55;13.40;99.90
21176;DHT22;10746;50.178;8.186;2022-10-16T07:14:22;13.50;99.90
21176;DHT22;10746;50.178;8.186;2022-10-16T07:16:48;13.60;99.90
21176;DHT22;10746;50.178;8.186;2022-10-16T07:19:15;13.50;99.90
21176;DHT22;10746;50.178;8.186;2022-10-16T07:21:43;13.50;99.90
21176;DHT22;10746;50.178;8.186;2022-10-16T07:24:14;13.60;99.90
21176;DHT22;10746;50.178;8.186;2022-10-16T07:26:42;13.60;99.90
21176;DHT22;10746;50.178;8.186;2022-10-16T07:29:13;13.60;99.90
21176;DHT22;10746;50.178;8.186;2022-10-16T07:31:40;13.60;99.90
21176;DHT22;10746;50.178;8.186;2022-10-16T07:34:07;13.60;99.90
21176;DHT22;10746;50.178;8.186;2022-10-16T07:36:33;13.60;99.90
21176;DHT22;10746;50.178;8.186;2022-10-16T07:39:00;13.60;99.90
21176;DHT22;10746;50.178;8.186;2022-10-16T07:41:29;13.60;99.90
21176;DHT22;10746;50.178;8.186;2022-10-16T07:43:58;13.60;99.90
21176;DHT22;10746;50.178;8.186;2022-10-16T07:46:27;13.60;99.90
21176;DHT22;10746;50.178;8.186;2022-10-16T07:48:54;13.80;99.90
21176;DHT22;10746;50.178;8.186;2022-10-16T07:51:22;13.70;99.90
21176;DHT22;10746;50.178;8.186;2022-10-16T07:53:49;13.70;99.90
21176;DHT22;10746;50.178;8.186;2022-10-16T07:56:17;13.70;99.90
21176;DHT22;10746;50.178;8.186;2022-10-16T07:58:46;13.70;99.90
21176;DHT22;10746;50.178;8.186;2022-10-16T08:01:16;13.70;99.90
21176;DHT22;10746;50.178;8.186;2022-10-16T08:03:43;13.80;99.90
21176;DHT22;10746;50.178;8.186;2022-10-16T08:06:10;13.70;99.90
21176;DHT22;10746;50.178;8.186;2022-10-16T08:08:37;13.90;99.90
21176;DHT22;10746;50.178;8.186;2022-10-16T08:11:04;13.90;99.90
21176;DHT22;10746;50.178;8.186;2022-10-16T08:13:31;13.90;99.90
21176;DHT22;10746;50.178;8.186;2022-10-16T08:15:59;13.90;99.90
21176;DHT22;10746;50.178;8.186;2022-10-16T08:18:26;14.00;99.90
21176;DHT22;10746;50.178;8.186;2022-10-16T08:20:57;14.00;99.90
21176;DHT22;10746;50.178;8.186;2022-10-16T08:23:24;13.90;99.90
21176;DHT22;10746;50.178;8.186;2022-10-16T08:25:51;14.00;99.90
21176;DHT22;10746;50.178;8.186;2022-10-16T08:28:18;14.00;99.90
21176;DHT22;10746;50.178;8.186;2022-10-16T08:30:45;14.10;99.90
21176;DHT22;10746;50.178;8.186;2022-10-16T08:33:13;14.00;99.90
21176;DHT22;10746;50.178;8.186;2022-10-16T08:35:40;14.10;99.90
21176;DHT22;10746;50.178;8.186;2022-10-16T08:38:07;14.20;99.90
21176;DHT22;10746;50.178;8.186;2022-10-16T08:40:36;14.20;99.90
21176;DHT22;10746;50.178;8.186;2022-10-16T08:46:17;14.20;99.90
21176;DHT22;10746;50.178;8.186;2022-10-16T08:48:50;14.20;99.90
21176;DHT22;10746;50.178;8.186;2022-10-16T08:51:20;14.30;99.90
21176;DHT22;10746;50.178;8.186;2022-10-16T08:53:52;14.40;99.90
21176;DHT22;10746;50.178;8.186;2022-10-16T08:56:20;14.40;99.90
21176;DHT22;10746;50.178;8.186;2022-10-16T08:58:48;14.40;99.90
21176;DHT22;10746;50.178;8.186;2022-10-16T09:01:16;14.40;99.90
21176;DHT22;10746;50.178;8.186;2022-10-16T09:03:58;14.40;99.90
21176;DHT22;10746;50.178;8.186;2022-10-16T09:06:37;14.50;99.90
21176;DHT22;10746;50.178;8.186;2022-10-16T09:09:22;14.60;99.90
21176;DHT22;10746;50.178;8.186;2022-10-16T09:11:56;14.50;99.90
21176;DHT22;10746;50.178;8.186;2022-10-16T09:14:40;14.50;99.90
21176;DHT22;10746;50.178;8.186;2022-10-16T09:17:24;14.60;99.90
21176;DHT22;10746;50.178;8.186;2022-10-16T09:20:02;14.70;99.90
21176;DHT22;10746;50.178;8.186;2022-10-16T09:22:33;14.80;99.90
21176;DHT22;10746;50.178;8.186;2022-10-16T09:25:00;14.90;99.90
21176;DHT22;10746;50.178;8.186;2022-10-16T09:27:36;14.80;99.90
21176;DHT22;10746;50.178;8.186;2022-10-16T09:30:11;15.00;99.90
21176;DHT22;10746;50.178;8.186;2022-10-16T09:32:39;15.10;99.90
21176;DHT22;10746;50.178;8.186;2022-10-16T09:35:14;15.20;99.90
21176;DHT22;10746;50.178;8.186;2022-10-16T09:37:42;15.40;99.90
21176;DHT22;10746;50.178;8.186;2022-10-16T09:40:13;15.50;99.90
21176;DHT22;10746;50.178;8.186;2022-10-16T09:42:40;15.50;99.90
21176;DHT22;10746;50.178;8.186;2022-10-16T09:45:20;15.50;99.90
21176;DHT22;10746;50.178;8.186;2022-10-16T09:47:48;15.50;99.90
21176;DHT22;10746;50.178;8.186;2022-10-16T09:50:23;15.60;99.90
21176;DHT22;10746;50.178;8.186;2022-10-16T09:53:02;15.70;99.90
21176;DHT22;10746;50.178;8.186;2022-10-16T09:55:29;15.80;99.90
21176;DHT22;10746;50.178;8.186;2022-10-16T09:57:56;15.70;99.90
21176;DHT22;10746;50.178;8.186;2022-10-16T10:00:23;15.80;99.90
21176;DHT22;10746;50.178;8.186;2022-10-16T10:02:51;15.80;99.90
21176;DHT22;10746;50.178;8.186;2022-10-16T10:05:22;15.80;99.90
21176;DHT22;10746;50.178;8.186;2022-10-16T10:07:55;15.80;99.90
21176;DHT22;10746;50.178;8.186;2022-10-16T10:10:24;15.90;99.90
21176;DHT22;10746;50.178;8.186;2022-10-16T10:12:52;16.20;99.90
21176;DHT22;10746;50.178;8.186;2022-10-16T10:15:19;16.40;99.90
21176;DHT22;10746;50.178;8.186;2022-10-16T10:17:48;16.60;99.90
21176;DHT22;10746;50.178;8.186;2022-10-16T10:20:24;16.50;99.90
21176;DHT22;10746;50.178;8.186;2022-10-16T10:22:51;16.60;99.90
21176;DHT22;10746;50.178;8.186;2022-10-16T10:25:30;16.60;99.90
21176;DHT22;10746;50.178;8.186;2022-10-16T10:28:08;16.70;99.90
21176;DHT22;10746;50.178;8.186;2022-10-16T10:30:41;17.30;99.90
21176;DHT22;10746;50.178;8.186;2022-10-16T10:33:21;17.70;99.90
21176;DHT22;10746;50.178;8.186;2022-10-16T10:35:59;17.60;99.90
21176;DHT22;10746;50.178;8.186;2022-10-16T10:38:39;17.60;99.90
21176;DHT22;10746;50.178;8.186;2022-10-16T10:41:30;17.30;99.90
21176;DHT22;10746;50.178;8.186;2022-10-16T10:44:05;17.40;99.90
21176;DHT22;10746;50.178;8.186;2022-10-16T10:46:36;17.20;99.90
21176;DHT22;10746;50.178;8.186;2022-10-16T10:49:24;17.30;99.90
21176;DHT22;10746;50.178;8.186;2022-10-16T10:52:02;17.30;99.90
21176;DHT22;10746;50.178;8.186;2022-10-16T10:54:38;17.30;99.90
21176;DHT22;10746;50.178;8.186;2022-10-16T10:57:12;17.20;99.90
21176;DHT22;10746;50.178;8.186;2022-10-16T11:00:02;17.10;99.90
21176;DHT22;10746;50.178;8.186;2022-10-16T11:02:36;17.00;99.90
21176;DHT22;10746;50.178;8.186;2022-10-16T11:05:31;16.80;99.90
21176;DHT22;10746;50.178;8.186;2022-10-16T11:08:08;16.90;99.90
21176;DHT22;10746;50.178;8.186;2022-10-16T11:10:42;17.00;99.90
21176;DHT22;10746;50.178;8.186;2022-10-16T11:13:19;17.20;99.90
21176;DHT22;10746;50.178;8.186;2022-10-16T11:15:48;17.40;99.90
21176;DHT22;10746;50.178;8.186;2022-10-16T11:18:22;17.50;99.90
21176;DHT22;10746;50.178;8.186;2022-10-16T11:20:51;17.70;99.90
21176;DHT22;10746;50.178;8.186;2022-10-16T11:23:26;18.20;99.90
21176;DHT22;10746;50.178;8.186;2022-10-16T11:25:57;19.00;99.90
21176;DHT22;10746;50.178;8.186;2022-10-16T11:28:31;19.10;99.90
21176;DHT22;10746;50.178;8.186;2022-10-16T11:31:02;18.90;99.90
21176;DHT22;10746;50.178;8.186;2022-10-16T11:33:34;18.40;99.90
21176;DHT22;10746;50.178;8.186;2022-10-16T11:36:08;18.00;99.90
21176;DHT22;10746;50.178;8.186;2022-10-16T11:38:45;17.90;99.90
21176;DHT22;10746;50.178;8.186;2022-10-16T11:41:21;17.60;99.90
21176;DHT22;10746;50.178;8.186;2022-10-16T11:43:53;17.50;99.90
21176;DHT22;10746;50.178;8.186;2022-10-16T11:46:24;17.40;99.90
21176;DHT22;10746;50.178;8.186;2022-10-16T11:48:57;17.20;99.90
21176;DHT22;10746;50.178;8.186;2022-10-16T11:51:32;17.10;99.90
21176;DHT22;10746;50.178;8.186;2022-10-16T11:54:08;17.20;99.90
21176;DHT22;10746;50.178;8.186;2022-10-16T11:56:43;17.60;99.90
21176;DHT22;10746;50.178;8.186;2022-10-16T11:59:17;17.80;99.90
21176;DHT22;10746;50.178;8.186;2022-10-16T12:01:50;18.40;99.90
21176;DHT22;10746;50.178;8.186;2022-10-16T12:04:24;18.80;99.90
21176;DHT22;10746;50.178;8.186;2022-10-16T12:06:58;18.80;99.90
21176;DHT22;10746;50.178;8.186;2022-10-16T12:09:29;19.10;99.90
21176;DHT22;10746;50.178;8.186;2022-10-16T12:11:57;19.30;99.90
21176;DHT22;10746;50.178;8.186;2022-10-16T12:14:41;19.30;99.90
21176;DHT22;10746;50.178;8.186;2022-10-16T12:17:25;19.50;99.90
21176;DHT22;10746;50.178;8.186;2022-10-16T12:20:19;19.60;99.90
21176;DHT22;10746;50.178;8.186;2022-10-16T12:22:49;19.10;99.90
21176;DHT22;10746;50.178;8.186;2022-10-16T12:25:24;18.70;99.90
21176;DHT22;10746;50.178;8.186;2022-10-16T12:28:01;18.50;99.90
21176;DHT22;10746;50.178;8.186;2022-10-16T12:30:31;18.10;99.90
21176;DHT22;10746;50.178;8.186;2022-10-16T12:33:00;17.50;99.90
21176;DHT22;10746;50.178;8.186;2022-10-16T12:35:30;17.40;99.90
21176;DHT22;10746;50.178;8.186;2022-10-16T12:38:14;18.00;99.90
21176;DHT22;10746;50.178;8.186;2022-10-16T12:41:05;18.80;99.90
21176;DHT22;10746;50.178;8.186;2022-10-16T12:43:38;19.50;99.90
21176;DHT22;10746;50.178;8.186;2022-10-16T12:46:23;20.20;99.90
21176;DHT22;10746;50.178;8.186;2022-10-16T12:48:51;20.30;99.90
21176;DHT22;10746;50.178;8.186;2022-10-16T12:51:32;19.60;99.90
21176;DHT22;10746;50.178;8.186;2022-10-16T12:54:00;18.90;99.90
21176;DHT22;10746;50.178;8.186;2022-10-16T12:56:39;18.40;99.90
21176;DHT22;10746;50.178;8.186;2022-10-16T12:59:16;18.10;99.90
21176;DHT22;10746;50.178;8.186;2022-10-16T13:02:02;18.10;99.90
21176;DHT22;10746;50.178;8.186;2022-10-16T13:04:43;18.20;99.90
21176;DHT22;10746;50.178;8.186;2022-10-16T13:10:13;18.90;99.90
21176;DHT22;10746;50.178;8.186;2022-10-16T13:12:57;19.10;99.90
21176;DHT22;10746;50.178;8.186;2022-10-16T13:15:52;18.90;99.90
21176;DHT22;10746;50.178;8.186;2022-10-16T13:18:29;19.10;99.90
21176;DHT22;10746;50.178;8.186;2022-10-16T13:21:11;19.00;99.90
21176;DHT22;10746;50.178;8.186;2022-10-16T13:23:47;18.80;99.90
21176;DHT22;10746;50.178;8.186;2022-10-16T13:26:22;18.70;99.90
21176;DHT22;10746;50.178;8.186;2022-10-16T13:28:53;18.70;99.90
21176;DHT22;10746;50.178;8.186;2022-10-16T13:31:21;18.50;99.90
21176;DHT22;10746;50.178;8.186;2022-10-16T13:33:51;18.30;99.90
21176;DHT22;10746;50.178;8.186;2022-10-16T13:36:22;18.60;99.90
21176;DHT22;10746;50.178;8.186;2022-10-16T13:39:00;18.80;99.90
21176;DHT22;10746;50.178;8.186;2022-10-16T13:41:32;18.80;99.90
21176;DHT22;10746;50.178;8.186;2022-10-16T13:44:00;18.50;99.90
21176;DHT22;10746;50.178;8.186;2022-10-16T13:46:27;18.40;99.90
21176;DHT22;10746;50.178;8.186;2022-10-16T13:49:01;18.20;99.90
21176;DHT22;10746;50.178;8.186;2022-10-16T13:51:30;18.10;99.90
21176;DHT22;10746;50.178;8.186;2022-10-16T13:53:58;18.00;99.90
21176;DHT22;10746;50.178;8.186;2022-10-16T13:56:26;17.80;99.90
21176;DHT22;10746;50.178;8.186;2022-10-16T13:59:03;17.70;99.90
21176;DHT22;10746;50.178;8.186;2022-10-16T14:01:32;17.70;99.90
21176;DHT22;10746;50.178;8.186;2022-10-16T14:04:02;17.60;99.90
21176;DHT22;10746;50.178;8.186;2022-10-16T14:06:31;17.60;99.90
21176;DHT22;10746;50.178;8.186;2022-10-16T14:09:00;17.60;99.90
21176;DHT22;10746;50.178;8.186;2022-10-16T14:11:28;17.60;99.90
21176;DHT22;10746;50.178;8.186;2022-10-16T14:13:56;17.50;99.90
21176;DHT22;10746;50.178;8.186;2022-10-16T14:16:30;17.60;99.90
21176;DHT22;10746;50.178;8.186;2022-10-16T14:19:00;17.80;99.90
21176;DHT22;10746;50.178;8.186;2022-10-16T14:21:28;18.10;99.90
21176;DHT22;10746;50.178;8.186;2022-10-16T14:23:57;18.40;99.90
21176;DHT22;10746;50.178;8.186;2022-10-16T14:26:26;18.40;99.90
21176;DHT22;10746;50.178;8.186;2022-10-16T14:29:10;18.10;99.90
21176;DHT22;10746;50.178;8.186;2022-10-16T14:31:40;17.80;99.90
21176;DHT22;10746;50.178;8.186;2022-10-16T14:34:23;17.80;99.90
21176;DHT22;10746;50.178;8.186;2022-10-16T14:36:50;17.80;99.90
21176;DHT22;10746;50.178;8.186;2022-10-16T14:39:19;17.60;99.90
21176;DHT22;10746;50.178;8.186;2022-10-16T14:41:48;17.60;99.90
21176;DHT22;10746;50.178;8.186;2022-10-16T14:44:17;17.60;99.90
21176;DHT22;10746;50.178;8.186;2022-10-16T14:46:47;17.80;99.90
21176;DHT22;10746;50.178;8.186;2022-10-16T14:49:16;17.90;99.90
21176;DHT22;10746;50.178;8.186;2022-10-16T14:51:45;17.70;99.90
21176;DHT22;10746;50.178;8.186;2022-10-16T14:54:14;17.70;99.90
21176;DHT22;10746;50.178;8.186;2022-10-16T14:56:47;17.60;99.90
21176;DHT22;10746;50.178;8.186;2022-10-16T14:59:17;17.40;99.90
21176;DHT22;10746;50.178;8.186;2022-10-16T15:01:45;17.40;99.90
21176;DHT22;10746;50.178;8.186;2022-10-16T15:04:21;17.10;99.90
21176;DHT22;10746;50.178;8.186;2022-10-16T15:06:48;17.00;99.90
21176;DHT22;10746;50.178;8.186;2022-10-16T15:09:16;17.00;99.90
21176;DHT22;10746;50.178;8.186;2022-10-16T15:11:44;16.90;99.90
21176;DHT22;10746;50.178;8.186;2022-10-16T15:14:12;17.00;99.90
21176;DHT22;10746;50.178;8.186;2022-10-16T15:16:39;17.00;99.90
21176;DHT22;10746;50.178;8.186;2022-10-16T15:19:07;16.90;99.90
21176;DHT22;10746;50.178;8.186;2022-10-16T15:21:36;17.00;99.90
21176;DHT22;10746;50.178;8.186;2022-10-16T15:24:09;16.90;99.90
21176;DHT22;10746;50.178;8.186;2022-10-16T15:26:37;16.90;99.90
21176;DHT22;10746;50.178;8.186;2022-10-16T15:29:04;16.90;99.90
21176;DHT22;10746;50.178;8.186;2022-10-16T15:31:32;16.90;99.90
21176;DHT22;10746;50.178;8.186;2022-10-16T15:33:59;16.90;99.90
21176;DHT22;10746;50.178;8.186;2022-10-16T15:36:31;16.80;99.90
21176;DHT22;10746;50.178;8.186;2022-10-16T15:39:02;16.90;99.90
21176;DHT22;10746;50.178;8.186;2022-10-16T15:41:29;16.70;99.90
21176;DHT22;10746;50.178;8.186;2022-10-16T15:43:56;16.80;99.90
21176;DHT22;10746;50.178;8.186;2022-10-16T15:46:24;16.60;99.90
21176;DHT22;10746;50.178;8.186;2022-10-16T15:48:56;16.60;99.90
21176;DHT22;10746;50.178;8.186;2022-10-16T15:51:23;16.60;99.90
21176;DHT22;10746;50.178;8.186;2022-10-16T15:53:52;16.60;99.90
21176;DHT22;10746;50.178;8.186;2022-10-16T15:56:21;16.50;99.90